Thunder radar more information blitzortung!


Radar de pluja more information rain snow radar


Visita la nostra xarxa de llocs de meteo:

Template documentation
and downloads

And another site



No particular awareness of the weather is required.    There are no Weather-warnings

Pagina Historial Weather Underground text

Diari Resum Novembre 7, 2017 Unitats:  Imperial    Mètric   Tant
« Previous Dia
SegĂźent Dia »
Diari Setmana Mensual Anual Personalitzada
  Maxima: Minima: Media:
Temperatura: 58.3 °F 37.4 °F 48 °F
Punt de rosada: 27.7 °F 12.7 °F 22.6 °F
Humitat: 51 % 29 % 37 %
Wind Speed: 10.4 mph 0 mph 3 mph
RĂ fegues de vent: 10.4 mph - -
Vent:- - SSW
Pression baro: 30.1 in 30 in -
Precipitacions: 0 in    
Historical Graphs
 
 
Dades de taula per Novembre 7, 2017
Temps Temperatura Punt de rosada Pression baro Vent Wind Speed RĂ fegues de vent Humitat Rainfall Rate (Hourly)
00:03 44.6 °F 14.4 °F 30 in SSW 1.2 mph   29 % 0 in
00:05 38.1 °F 12.7 °F 30.1 in WSW 1 mph 2 mph 35 % 0 in
00:08 44.6 °F 14.4 °F 30 in SSW 4.6 mph 4.6 mph 29 % 0 in
00:15 38.3 °F 13.6 °F 30.1 in Calm   1 mph 36 % 0 in
00:25 38.1 °F 13.5 °F 30 in Calm   1 mph 36 % 0 in
00:45 37.8 °F 13.8 °F 30.1 in WSW 1 mph 3 mph 37 % 0 in
00:55 37.9 °F 13.8 °F 30.1 in Calm   2 mph 37 % 0 in
01:05 37.8 °F 14.4 °F 30.1 in WNW 1 mph 2 mph 38 % 0 in
01:15 37.9 °F 15.1 °F 30.1 in Calm   1 mph 39 % 0 in
01:25 37.8 °F 15.1 °F 30.1 in Calm   1 mph 39 % 0 in
01:35 37.6 °F 15.4 °F 30.1 in WNW 1 mph 1 mph 40 % 0 in
01:45 37.4 °F 15.8 °F 30.1 in West 1 mph 2 mph 41 % 0 in
01:55 37.9 °F 16.3 °F 30.1 in Calm   2 mph 41 % 0 in
02:05 39.4 °F 18.1 °F 30.1 in WNW 1 mph 2 mph 42 % 0 in
02:15 40.3 °F 19 °F 30.1 in NNE 1 mph 1 mph 42 % 0 in
02:25 40.6 °F 19.9 °F 30.1 in Calm   3 mph 43 % 0 in
02:35 41.4 °F 20.5 °F 30.1 in North 1 mph 2 mph 43 % 0 in
02:45 42.6 °F 21.7 °F 30.1 in North 1 mph 3 mph 43 % 0 in
02:55 42.8 °F 21.7 °F 30.1 in North 1 mph 3 mph 43 % 0 in
03:05 43.3 °F 22.3 °F 30.1 in North 2 mph 3 mph 43 % 0 in
03:15 42.8 °F 21.7 °F 30.1 in NE 3 mph 5 mph 43 % 0 in
03:25 44.1 °F 23.5 °F 30.1 in NE 1 mph 2 mph 44 % 0 in
03:35 44.2 °F 23.7 °F 30.1 in NE 2 mph 3 mph 44 % 0 in
03:45 44.6 °F 24.1 °F 30.1 in NNE 2 mph 5 mph 44 % 0 in
03:55 45.3 °F 24.6 °F 30.1 in Calm   4 mph 44 % 0 in
04:05 46.2 °F 25.5 °F 30.1 in NNE 2 mph 3 mph 44 % 0 in
04:15 47.1 °F 26.2 °F 30.1 in NE 1 mph 3 mph 44 % 0 in
10:17 47.3 °F 25.9 °F 30.1 in North 2.3 mph 2.3 mph 43 % 0 in
10:18 47.3 °F 25.9 °F 30.1 in NNE 2.3 mph 2.3 mph 43 % 0 in
10:19 47.5 °F 26.1 °F 30.1 in NW 3.5 mph 3.5 mph 43 % 0 in
10:24 48.2 °F 26.8 °F 30.1 in WSW 5.8 mph 5.8 mph 43 % 0 in
10:29 48.6 °F 26.4 °F 30.1 in West 8.1 mph 8.1 mph 42 % 0 in
10:34 48.9 °F 26.8 °F 30.1 in SW 8.1 mph 8.1 mph 42 % 0 in
10:39 49.5 °F 27.3 °F 30.1 in West 5.8 mph 5.8 mph 42 % 0 in
10:44 50 °F 27.1 °F 30.1 in WNW 3.5 mph 3.5 mph 41 % 0 in
10:49 50.2 °F 27.3 °F 30.1 in WSW 5.9 mph 5.9 mph 41 % 0 in
10:54 50.5 °F 27.1 °F 30.1 in SSW 4.6 mph 4.6 mph 40 % 0 in
10:59 50.7 °F 27.1 °F 30.1 in West 6.9 mph 6.9 mph 40 % 0 in
11:04 50.5 °F 25.9 °F 30.1 in West 9.2 mph 9.2 mph 38 % 0 in
11:09 51.1 °F 26.2 °F 30.1 in WNW 4.6 mph 4.6 mph 38 % 0 in
11:14 51.1 °F 25.7 °F 30.1 in WSW 6.9 mph 6.9 mph 37 % 0 in
11:19 51.4 °F 26.1 °F 30.1 in WNW 5.8 mph 5.8 mph 37 % 0 in
11:24 51.6 °F 25.5 °F 30.1 in SW 6.9 mph 6.9 mph 36 % 0 in
11:29 52 °F 25.9 °F 30.1 in WSW 8.1 mph 8.1 mph 36 % 0 in
11:34 52 °F 25.2 °F 30.1 in West 6.9 mph 6.9 mph 35 % 0 in
11:39 52.2 °F 25.3 °F 30.1 in West 5.8 mph 5.8 mph 35 % 0 in
11:44 52.7 °F 25.9 °F 30.1 in WSW 4.6 mph 4.6 mph 35 % 0 in
11:49 53.1 °F 26.1 °F 30.1 in WSW 5.8 mph 5.8 mph 35 % 0 in
11:54 53.2 °F 25.5 °F 30.1 in WNW 3.5 mph 3.5 mph 34 % 0 in
11:59 53.2 °F 25.5 °F 30.1 in NW 6.9 mph 6.9 mph 34 % 0 in
12:04 54 °F 26.2 °F 30.1 in ESE 5.8 mph 5.8 mph 34 % 0 in
12:09 54.3 °F 26.4 °F 30.1 in West 6.9 mph 6.9 mph 34 % 0 in
12:14 54.5 °F 26.8 °F 30.1 in WSW 5.8 mph 5.8 mph 34 % 0 in
12:19 54.5 °F 26.1 °F 30.1 in WSW 6.9 mph 6.9 mph 33 % 0 in
12:24 55 °F 26.4 °F 30.1 in West 6.9 mph 6.9 mph 33 % 0 in
12:29 55.6 °F 27 °F 30.1 in West 2.4 mph 2.4 mph 33 % 0 in
12:34 55.9 °F 27.1 °F 30.1 in West 4.6 mph 4.6 mph 33 % 0 in
12:39 55.9 °F 27.1 °F 30.1 in WNW 8.1 mph 8.1 mph 33 % 0 in
12:44 56.3 °F 27.5 °F 30.1 in SSW 8.1 mph 8.1 mph 33 % 0 in
12:49 56.3 °F 27.5 °F 30.1 in WNW 5.8 mph 5.8 mph 33 % 0 in
12:54 56.3 °F 26.8 °F 30.1 in West 8.1 mph 8.1 mph 32 % 0 in
13:04 56.8 °F 27.3 °F 30.1 in West 6.9 mph 6.9 mph 32 % 0 in
13:09 56.7 °F 27.1 °F 30.1 in WSW 4.9 mph 4.9 mph 32 % 0 in
13:14 57.2 °F 27.7 °F 30.1 in South 6.2 mph 6.2 mph 32 % 0 in
13:19 56.7 °F 26.2 °F 30.1 in West 9.2 mph 9.2 mph 31 % 0 in
13:24 56.5 °F 26.2 °F 30.1 in WSW 5.8 mph 5.8 mph 31 % 0 in
13:29 56.8 °F 25.7 °F 30.1 in West 8.1 mph 8.1 mph 30 % 0 in
13:34 56.5 °F 25.3 °F 30.1 in North 6.9 mph 6.9 mph 30 % 0 in
13:39 56.5 °F 25.3 °F 30.1 in South 7.4 mph 7.4 mph 30 % 0 in
13:44 56.5 °F 25.3 °F 30.1 in WSW 7.1 mph 7.1 mph 30 % 0 in
13:49 56.5 °F 25.3 °F 30.1 in West 9.2 mph 9.2 mph 30 % 0 in
13:54 56.3 °F 24.4 °F 30.1 in West 5.8 mph 5.8 mph 29 % 0 in
13:59 56.3 °F 24.4 °F 30.1 in West 5.8 mph 5.8 mph 29 % 0 in
14:04 56.5 °F 24.6 °F 30.1 in SW 9.2 mph 9.2 mph 29 % 0 in
14:09 56.7 °F 25.5 °F 30 in SW 8.1 mph 8.1 mph 30 % 0 in
14:14 56.8 °F 25.7 °F 30 in West 4.6 mph 4.6 mph 30 % 0 in
14:19 57 °F 25.9 °F 30 in SW 6.9 mph 6.9 mph 30 % 0 in
14:24 57.2 °F 26.1 °F 30.1 in West 8.1 mph 8.1 mph 30 % 0 in
14:34 57.2 °F 26.1 °F 30.1 in WSW 8.1 mph 8.1 mph 30 % 0 in
14:39 57.7 °F 26.4 °F 30.1 in West 5.8 mph 5.8 mph 30 % 0 in
14:44 57.6 °F 26.2 °F 30.1 in WSW 8.1 mph 8.1 mph 30 % 0 in
14:49 57.6 °F 26.2 °F 30.1 in West 6.9 mph 6.9 mph 30 % 0 in
14:54 57.7 °F 26.4 °F 30.1 in WSW 6.9 mph 6.9 mph 30 % 0 in
14:59 57.9 °F 26.6 °F 30.1 in NW 3.6 mph 3.6 mph 30 % 0 in
15:04 58.1 °F 26.8 °F 30.1 in West 5.8 mph 5.8 mph 30 % 0 in
15:09 58.1 °F 26.8 °F 30.1 in SW 4.6 mph 4.6 mph 30 % 0 in
15:14 58.3 °F 27 °F 30.1 in ENE 4.6 mph 4.6 mph 30 % 0 in
15:19 57.9 °F 26.6 °F 30.1 in NW 3.5 mph 3.5 mph 30 % 0 in
15:24 58.1 °F 26.8 °F 30.1 in South 3.5 mph 3.5 mph 30 % 0 in
15:29 58.1 °F 26.8 °F 30.1 in WSW 9.2 mph 9.2 mph 30 % 0 in
15:34 57.9 °F 25.9 °F 30.1 in West 5.8 mph 5.8 mph 29 % 0 in
15:36 58.1 °F 26.8 °F 30 in WSW 5.9 mph 5.9 mph 30 % 0 in
15:41 58.1 °F 26.8 °F 30 in WSW 5.6 mph 5.6 mph 30 % 0 in
15:46 57.7 °F 25.7 °F 30 in SW 8.1 mph 8.1 mph 29 % 0 in
15:51 57.9 °F 25.9 °F 30.1 in West 5.6 mph 5.6 mph 29 % 0 in
15:56 57.6 °F 25.5 °F 30.1 in WSW 10.4 mph 10.4 mph 29 % 0 in
16:01 57.4 °F 25.3 °F 30.1 in WSW 5.8 mph 5.8 mph 29 % 0 in
16:06 57.6 °F 25.5 °F 30 in WNW 5.8 mph 5.8 mph 29 % 0 in
16:11 57.7 °F 26.4 °F 30 in WSW 3.8 mph 3.8 mph 30 % 0 in
16:16 57.6 °F 26.2 °F 30 in South 4.3 mph 4.3 mph 30 % 0 in
16:21 57.6 °F 25.5 °F 30 in WSW 5.8 mph 5.8 mph 29 % 0 in
16:26 57.6 °F 26.2 °F 30 in West 4.6 mph 4.6 mph 30 % 0 in
16:32 57.6 °F 26.2 °F 30 in SW 5.8 mph 5.8 mph 30 % 0 in
16:37 57.6 °F 26.2 °F 30 in WSW 5.8 mph 5.8 mph 30 % 0 in
16:42 57.6 °F 26.2 °F 30 in WNW 3.5 mph 3.5 mph 30 % 0 in
16:47 57.4 °F 26.2 °F 30 in WSW 2.3 mph 2.3 mph 30 % 0 in
16:52 57.2 °F 26.1 °F 30 in WNW 2.9 mph 2.9 mph 30 % 0 in
16:57 56.8 °F 25.7 °F 30 in NW 3.5 mph 3.5 mph 30 % 0 in
17:02 56.5 °F 25.3 °F 30 in WNW 2.3 mph 2.3 mph 30 % 0 in
17:07 56.5 °F 25.3 °F 30 in West 3.6 mph 3.6 mph 30 % 0 in
17:12 55.9 °F 25 °F 30 in West 3.5 mph 3.5 mph 30 % 0 in
17:17 55.4 °F 24.4 °F 30 in WSW 2.3 mph 2.3 mph 30 % 0 in
17:22 54.7 °F 23.7 °F 30 in WSW 2.3 mph 2.3 mph 30 % 0 in
17:27 54.3 °F 23.5 °F 30 in West 1.6 mph 1.6 mph 30 % 0 in
17:32 54 °F 23.2 °F 30 in West 2.3 mph 2.3 mph 30 % 0 in
17:37 53.6 °F 22.8 °F 30.1 in WSW 2.3 mph   30 % 0 in
17:42 53.2 °F 22.6 °F 30.1 in West 2.3 mph 2.3 mph 30 % 0 in
17:47 52.7 °F 22.1 °F 30.1 in WSW 1.2 mph 1.2 mph 30 % 0 in
17:52 52.3 °F 21.7 °F 30.1 in WSW 1.6 mph 1.6 mph 30 % 0 in
17:57 52.2 °F 22.5 °F 30.1 in WSW 2.3 mph 2.3 mph 31 % 0 in
18:02 52 °F 22.3 °F 30.1 in West 2.3 mph 2.3 mph 31 % 0 in
18:07 51.4 °F 21.7 °F 30.1 in Calm     31 % 0 in
18:12 50.9 °F 21.4 °F 30.1 in NNE 2.3 mph 2.3 mph 31 % 0 in
18:15 40.1 °F 21.6 °F 30.1 in Calm   1 mph 47 % 0 in
18:17 50.5 °F 21 °F 30.1 in NNE 2.3 mph 2.3 mph 31 % 0 in
18:22 50.4 °F 20.8 °F 30.1 in NE 2.3 mph 2.3 mph 31 % 0 in
18:25 40.1 °F 21.9 °F 30.1 in WSW 2 mph 2 mph 48 % 0 in
18:27 50.2 °F 20.7 °F 30.1 in NW 1.2 mph   31 % 0 in
18:32 50 °F 20.5 °F 30.1 in WNW 1.4 mph   31 % 0 in
18:35 39.6 °F 21.6 °F 30.1 in SW 1 mph 2 mph 48 % 0 in
18:37 49.8 °F 20.5 °F 30.1 in NNE 2.3 mph   31 % 0 in
18:42 49.8 °F 20.5 °F 30.1 in NNE 2.4 mph 2.4 mph 31 % 0 in
18:45 40.1 °F 21.9 °F 30.1 in Calm   1 mph 48 % 0 in
18:47 49.5 °F 19.9 °F 30.1 in North 2.3 mph 2.3 mph 31 % 0 in
18:52 49.3 °F 19.9 °F 30.1 in NNE 2.3 mph 2.3 mph 31 % 0 in
18:55 39.6 °F 21.6 °F 30.1 in WSW 1 mph 2 mph 48 % 0 in
18:57 49.3 °F 19.9 °F 30.1 in Calm     31 % 0 in
19:02 48.9 °F 19.6 °F 30.1 in Calm     31 % 0 in
19:05 39.2 °F 21 °F 30.1 in Calm   2 mph 48 % 0 in
19:07 48.9 °F 19.6 °F 30.1 in NW 1.2 mph 1.2 mph 31 % 0 in
19:12 48.9 °F 20.3 °F 30.1 in NW 1.2 mph   32 % 0 in
19:15 39.4 °F 21.4 °F 30.1 in West 1 mph 2 mph 48 % 0 in
19:17 48.9 °F 20.3 °F 30.1 in NW 1.2 mph   32 % 0 in
19:22 48.6 °F 19.9 °F 30.1 in Calm     32 % 0 in
19:25 39.6 °F 21.6 °F 30.1 in Calm   2 mph 48 % 0 in
19:27 48.4 °F 19.8 °F 30.1 in NW 1.2 mph   32 % 0 in
19:32 48.4 °F 19.8 °F 30.1 in WNW 1.2 mph 1.2 mph 32 % 0 in
19:35 39.7 °F 21.6 °F 30.1 in Calm   1 mph 48 % 0 in
19:37 48.4 °F 19.8 °F 30.1 in NNE 1.2 mph   32 % 0 in
19:42 48.2 °F 19.8 °F 30.1 in Calm     32 % 0 in
19:45 39.9 °F 21.7 °F 30.1 in Calm   1 mph 48 % 0 in
19:47 47.8 °F 20.1 °F 30.1 in Calm     33 % 0 in
19:52 47.7 °F 19.9 °F 30.1 in North 1.2 mph   33 % 0 in
19:55 40.3 °F 22.1 °F 30.1 in WNW 1 mph 2 mph 48 % 0 in
19:57 47.7 °F 19.9 °F 30.1 in NW 1.2 mph 1.2 mph 33 % 0 in
20:02 47.7 °F 19.9 °F 30.1 in WNW 2.3 mph 2.3 mph 33 % 0 in
20:05 39.4 °F 21.4 °F 30.1 in Calm   1 mph 48 % 0 in
20:07 47.3 °F 19.6 °F 30.1 in WNW 2.3 mph 2.3 mph 33 % 0 in
20:12 47.3 °F 19.6 °F 30.1 in WNW 2.3 mph 2.3 mph 33 % 0 in
20:15 38.5 °F 21 °F 30.1 in NNE 2 mph 3 mph 49 % 0 in
20:17 47.3 °F 19.6 °F 30.1 in Calm     33 % 0 in
20:22 47.1 °F 19.6 °F 30.1 in NNE 2.4 mph 2.4 mph 33 % 0 in
20:27 46.8 °F 19.8 °F 30.1 in NE 2.3 mph   34 % 0 in
20:32 46.6 °F 19.8 °F 30.1 in WNW 1.4 mph 1.4 mph 34 % 0 in
20:35 38.5 °F 21 °F 30.1 in Calm   1 mph 49 % 0 in
20:37 45.7 °F 18.9 °F 30.1 in WSW 2.3 mph 2.3 mph 34 % 0 in
20:42 45.5 °F 18.7 °F 30.1 in WSW 1.2 mph 1.2 mph 34 % 0 in
20:45 38.7 °F 21.6 °F 30.1 in North 1 mph 3 mph 50 % 0 in
20:47 45.9 °F 19 °F 30.1 in WNW 1.6 mph 1.6 mph 34 % 0 in
20:52 45.9 °F 19 °F 30.1 in WNW 1.4 mph 1.4 mph 34 % 0 in
20:55 37.8 °F 20.8 °F 30.1 in West 2 mph 3 mph 50 % 0 in
20:57 45.9 °F 19 °F 30.1 in WNW 1.6 mph 1.6 mph 34 % 0 in
21:03 45.9 °F 19 °F 30.1 in West 1.4 mph 1.4 mph 34 % 0 in
21:05 37.6 °F 20.7 °F 30.1 in WSW 1 mph 3 mph 50 % 0 in
21:07 45.5 °F 19.4 °F 30.1 in ESE 4.6 mph 4.6 mph 35 % 0 in
21:12 44.6 °F 18.7 °F 30.1 in ENE 3.6 mph 3.6 mph 35 % 0 in
21:15 38.3 °F 21.4 °F 30.1 in WSW 2 mph 3 mph 50 % 0 in
21:17 44.8 °F 19.4 °F 30.1 in ENE 2.3 mph 2.3 mph 36 % 0 in
21:23 44.6 °F 19.2 °F 30.1 in NNE 1.4 mph 1.4 mph 36 % 0 in
21:27 44.4 °F 19.8 °F 30.1 in SSW 2.3 mph 2.3 mph 37 % 0 in
21:33 43.9 °F 19.9 °F 30.1 in Calm     38 % 0 in
21:35 38.8 °F 21.7 °F 30.1 in WSW 2 mph 3 mph 50 % 0 in
21:43 43.9 °F 20.5 °F 30.1 in Calm     39 % 0 in
21:44 43.7 °F 20.3 °F 30.1 in SSW 1.4 mph   39 % 0 in
21:45 39.2 °F 22.6 °F 30.1 in WSW 1 mph 2 mph 51 % 0 in
21:54 43.5 °F 20.1 °F 30.1 in WSW 1.4 mph   39 % 0 in
21:55 39.6 °F 22.5 °F 30.1 in WSW 1 mph 2 mph 50 % 0 in
21:59 43.2 °F 20.5 °F 30.1 in WSW 1.4 mph 1.4 mph 40 % 0 in
22:04 43.2 °F 20.5 °F 30.1 in WSW 1.2 mph   40 % 0 in
22:05 39.7 °F 23.2 °F 30.1 in NW 1 mph 1 mph 51 % 0 in
22:09 43 °F 20.8 °F 30.1 in Calm     41 % 0 in
22:14 42.8 °F 20.7 °F 30.1 in WSW 2.3 mph 2.3 mph 41 % 0 in
22:15 40.3 °F 23.5 °F 30.1 in North 1 mph 2 mph 51 % 0 in
22:19 42.8 °F 20.7 °F 30.1 in Calm     41 % 0 in
22:24 42.6 °F 20.5 °F 30.1 in Calm     41 % 0 in
22:29 42.3 °F 20.1 °F 30.1 in Calm     41 % 0 in
22:34 42.3 °F 20.8 °F 30.1 in SE 1.2 mph 1.2 mph 42 % 0 in
22:35 39.7 °F 23.2 °F 30.1 in Calm   2 mph 51 % 0 in
22:44 41.7 °F 20.3 °F 30.1 in SW 2.3 mph 2.3 mph 42 % 0 in
22:45 39.9 °F 23.2 °F 30.1 in Calm   3 mph 51 % 0 in
22:49 41.4 °F 19.4 °F 30.1 in SW 2.3 mph 2.3 mph 41 % 0 in
22:54 41.4 °F 19.9 °F 30.1 in ENE 1.6 mph   42 % 0 in
22:55 39.9 °F 23.2 °F 30.1 in NW 1 mph 2 mph 51 % 0 in
22:59 41.4 °F 19.9 °F 30.1 in West 1.6 mph 1.6 mph 42 % 0 in
23:04 41.4 °F 20.5 °F 30.1 in SSE 2.3 mph 2.3 mph 43 % 0 in
23:05 39.9 °F 23.2 °F 30.1 in Calm   2 mph 51 % 0 in
23:09 41.4 °F 21 °F 30.1 in Calm     44 % 0 in
23:14 41.4 °F 21 °F 30.1 in Calm     44 % 0 in
23:15 39.9 °F 23.2 °F 30.1 in NNE 1 mph 3 mph 51 % 0 in
23:19 41.4 °F 20.5 °F 30.1 in WNW 1.4 mph 1.4 mph 43 % 0 in
23:24 41.2 °F 20.8 °F 30.1 in NNE 1.4 mph 1.4 mph 44 % 0 in
23:25 39.7 °F 23.2 °F 30.1 in NNE 2 mph 2 mph 51 % 0 in
23:29 41.2 °F 21.4 °F 30.1 in Calm     45 % 0 in
23:34 41 °F 21.4 °F 30.1 in South 1.2 mph   45 % 0 in
23:35 39.4 °F 22.6 °F 30.1 in Calm   1 mph 51 % 0 in
23:39 40.8 °F 21 °F 30.1 in SW 1.4 mph 1.4 mph 45 % 0 in
23:44 40.3 °F 21 °F 30.1 in NNE 1.6 mph   46 % 0 in
23:45 39.2 °F 22.6 °F 30.1 in WNW 1 mph 1 mph 51 % 0 in
23:49 40.1 °F 21 °F 30.1 in North 2.3 mph 2.3 mph 46 % 0 in
23:54 40.1 °F 21.6 °F 30.1 in North 1.2 mph 1.2 mph 47 % 0 in
23:55 38.8 °F 22.3 °F 30.1 in WNW 1 mph 1 mph 51 % 0 in
23:59 40.1 °F 21.6 °F 30.1 in NE 1.2 mph 1.2 mph 47 % 0 in
Meteo Sesrovires
Elogis d' Weather Underground - 3.75 mb

Guio original per  Jim McMurry - jmcmurry@mwt.net Adaptat per a la plantilla per  Wim van der Kuil - Leuven-Template.eu

Trobareu la nostra informacio del temps tambe a:

Weather Underground

AWEKAS